Terminal Aerodrome Forecast
Issued by NWS Tampa Bay Area, FL

Home | Current Version | Previous Version | Text Only | Print | Product List | Glossary On
Versions: 1 2 3 4 5 6 7 8 9 10 11 12
000
FTUS42 KTBW 041720
TAFSRQ
TAF
KSRQ 041720Z 0418/0518 09014G20KT P6SM SCT040 BKN080
     FM050100 08010KT P6SM SCT050 SCT250
     FM050400 07007KT P6SM SCT250=

USA.gov is the U.S. government's official web portal to all federal, state and local government web resources and services.